createdAt,value
2019-03-25T00:02:05.815Z,74.54
2019-03-25T00:04:34.333Z,75.21
2019-03-25T00:07:02.902Z,75.63
2019-03-25T00:09:31.432Z,76.13
2019-03-25T00:12:00.019Z,76.73
2019-03-25T00:14:28.504Z,76.88
2019-03-25T00:16:56.958Z,76.79
2019-03-25T00:19:25.404Z,76.44
2019-03-25T00:21:53.862Z,76.85
2019-03-25T00:24:22.279Z,76.50
2019-03-25T00:26:50.794Z,76.06
2019-03-25T00:29:19.293Z,76.53
2019-03-25T00:31:47.741Z,76.70
2019-03-25T00:34:16.161Z,76.54
2019-03-25T00:36:44.625Z,76.98
2019-03-25T00:39:13.040Z,76.59
2019-03-25T00:41:41.535Z,76.94
2019-03-25T00:44:10.131Z,77.03
2019-03-25T00:46:38.521Z,76.71
2019-03-25T00:49:07.022Z,77.41
2019-03-25T00:51:35.534Z,77.58
2019-03-25T00:54:04.398Z,77.40
2019-03-25T00:56:32.849Z,77.11
2019-03-25T00:59:01.271Z,77.07
2019-03-25T01:01:29.696Z,77.50
2019-03-25T01:03:58.281Z,77.82
2019-03-25T01:06:26.777Z,77.88
2019-03-25T01:08:55.241Z,78.05
2019-03-25T01:11:23.743Z,76.87
2019-03-25T01:13:52.201Z,76.67
2019-03-25T01:16:20.626Z,75.52
2019-03-25T01:18:49.096Z,75.10
2019-03-25T01:21:17.557Z,74.35
2019-03-25T01:23:45.983Z,74.54
2019-03-25T01:26:14.400Z,74.45
2019-03-25T01:28:42.991Z,75.04
2019-03-25T01:31:11.562Z,75.93
2019-03-25T01:33:40.097Z,75.41
2019-03-25T01:36:08.515Z,75.38
2019-03-25T01:38:36.944Z,75.83
2019-03-25T01:41:05.457Z,76.44
2019-03-25T01:43:33.977Z,76.49
2019-03-25T01:46:02.464Z,76.08
2019-03-25T01:48:30.915Z,76.47
2019-03-25T01:50:59.363Z,76.35
2019-03-25T01:53:27.776Z,76.40
2019-03-25T01:55:56.252Z,76.03
2019-03-25T01:58:24.691Z,75.81
2019-03-25T02:00:53.113Z,75.70
2019-03-25T02:03:21.566Z,75.73
2019-03-25T02:05:50.164Z,75.73
2019-03-25T02:08:18.655Z,75.84
2019-03-25T02:10:47.111Z,75.98
2019-03-25T02:13:16.634Z,75.86
2019-03-25T02:15:45.102Z,75.65
2019-03-25T02:18:13.639Z,75.97
2019-03-25T02:20:42.050Z,76.24
2019-03-25T02:23:12.011Z,76.28
2019-03-25T02:25:40.763Z,76.44
2019-03-25T02:28:09.187Z,77.08
2019-03-25T02:30:37.668Z,77.46
2019-03-25T02:33:06.081Z,77.72
2019-03-25T02:35:34.543Z,77.98
2019-03-25T02:38:03.056Z,78.72
2019-03-25T02:40:31.456Z,78.90
2019-03-25T02:42:59.986Z,78.92
2019-03-25T02:45:28.514Z,78.73
2019-03-25T02:47:56.964Z,78.71
2019-03-25T02:50:25.448Z,78.61
2019-03-25T02:52:53.872Z,78.91
2019-03-25T02:55:22.399Z,79.28
2019-03-25T02:57:50.820Z,79.07
2019-03-25T03:00:24.878Z,79.14
2019-03-25T03:02:53.379Z,79.44
2019-03-25T03:05:21.806Z,79.59
2019-03-25T03:07:50.255Z,79.35
2019-03-25T03:10:18.678Z,79.31
2019-03-25T03:12:47.122Z,79.33
2019-03-25T03:15:15.608Z,79.42
2019-03-25T03:17:44.062Z,79.15
2019-03-25T03:20:12.587Z,79.23
2019-03-25T03:22:41.195Z,79.24
2019-03-25T03:25:09.688Z,79.04
2019-03-25T03:27:38.107Z,79.17
2019-03-25T03:30:07.905Z,79.09
2019-03-25T03:32:36.399Z,79.14
2019-03-25T03:35:06.911Z,79.14
2019-03-25T03:37:35.348Z,78.75
2019-03-25T03:40:05.251Z,78.48
2019-03-25T03:42:33.675Z,78.35
2019-03-25T03:45:02.194Z,78.08
2019-03-25T03:47:30.638Z,77.64
2019-03-25T03:49:59.080Z,77.43
2019-03-25T03:52:27.726Z,77.49
2019-03-25T03:54:56.314Z,77.45
2019-03-25T03:57:24.843Z,77.90
2019-03-25T03:59:53.378Z,77.69
2019-03-25T04:02:21.822Z,77.62
2019-03-25T04:04:50.257Z,77.14
2019-03-25T04:07:18.701Z,76.59
2019-03-25T04:09:47.206Z,76.49
2019-03-25T04:12:15.735Z,76.29
2019-03-25T04:14:44.253Z,76.36
2019-03-25T04:17:12.680Z,76.95
2019-03-25T04:19:41.209Z,77.39
2019-03-25T04:22:09.647Z,77.11
2019-03-25T04:24:38.079Z,76.42
2019-03-25T04:27:06.599Z,76.60
2019-03-25T04:29:35.192Z,77.01
2019-03-25T04:32:06.186Z,76.60
2019-03-25T04:34:33.891Z,77.28
2019-03-25T04:37:02.317Z,77.77
2019-03-25T04:39:30.846Z,77.88
2019-03-25T04:41:59.535Z,78.18
2019-03-25T04:44:27.965Z,78.37
2019-03-25T04:46:56.492Z,78.42
2019-03-25T04:49:24.952Z,78.47
2019-03-25T04:51:53.378Z,78.88
2019-03-25T04:54:21.806Z,78.68
2019-03-25T04:56:50.360Z,78.96
2019-03-25T04:59:18.792Z,78.72
2019-03-25T05:01:47.237Z,78.52
2019-03-25T05:04:15.680Z,78.02
2019-03-25T05:06:44.121Z,78.22
2019-03-25T05:09:12.578Z,78.21
2019-03-25T05:11:41.075Z,79.07
2019-03-25T05:14:09.517Z,79.50
2019-03-25T05:16:37.940Z,79.25
2019-03-25T05:19:06.365Z,78.90
2019-03-25T05:21:35.152Z,78.80
2019-03-25T05:24:03.580Z,79.62
2019-03-25T05:26:32.001Z,80.01
2019-03-25T05:29:00.443Z,80.09
2019-03-25T05:31:28.908Z,79.34
2019-03-25T05:33:57.353Z,79.89
2019-03-25T05:36:25.772Z,80.19
2019-03-25T05:38:54.239Z,79.34
2019-03-25T05:41:22.689Z,79.15
2019-03-25T05:43:51.128Z,78.63
2019-03-25T05:46:19.663Z,78.74
2019-03-25T05:48:48.082Z,78.51
2019-03-25T05:51:16.614Z,78.78
2019-03-25T05:53:45.064Z,79.13
2019-03-25T05:56:13.472Z,79.62
2019-03-25T05:58:41.924Z,78.34
2019-03-25T06:01:10.489Z,78.44
2019-03-25T06:03:38.943Z,78.44
2019-03-25T06:06:07.364Z,78.65
2019-03-25T06:08:35.818Z,78.38
2019-03-25T06:11:04.323Z,76.79
2019-03-25T06:13:32.767Z,76.94
2019-03-25T06:16:01.246Z,77.00
2019-03-25T06:18:29.664Z,76.35
2019-03-25T06:20:58.103Z,76.92
2019-03-25T06:23:26.613Z,76.49
2019-03-25T06:25:55.105Z,76.45
2019-03-25T06:28:23.556Z,76.20
2019-03-25T06:30:52.012Z,76.30
2019-03-25T06:33:20.458Z,75.86
2019-03-25T06:35:48.959Z,75.87
2019-03-25T06:38:17.425Z,75.38
2019-03-25T06:40:45.919Z,75.51
2019-03-25T06:43:14.371Z,76.21
2019-03-25T06:45:42.794Z,75.40
2019-03-25T06:48:11.258Z,75.18
2019-03-25T06:50:39.758Z,74.41
2019-03-25T06:53:08.240Z,74.25
2019-03-25T06:55:36.737Z,74.56
2019-03-25T06:58:05.407Z,73.05
2019-03-25T07:00:33.926Z,73.00
2019-03-25T07:03:02.414Z,72.48
2019-03-25T07:05:30.946Z,72.79
2019-03-25T07:07:59.437Z,72.22
2019-03-25T07:10:35.440Z,72.32
2019-03-25T07:13:05.559Z,70.51
2019-03-25T07:15:34.044Z,71.43
2019-03-25T07:18:02.768Z,70.74
2019-03-25T07:20:31.318Z,70.55
2019-03-25T07:22:59.823Z,69.64
2019-03-25T07:25:28.367Z,68.04
2019-03-25T07:27:56.783Z,68.36
2019-03-25T07:30:25.282Z,66.52
2019-03-25T07:32:53.817Z,64.43
2019-03-25T07:35:22.524Z,59.61
2019-03-25T07:37:51.108Z,57.27
2019-03-25T07:40:19.590Z,53.61
2019-03-25T07:42:48.139Z,52.34
2019-03-25T07:45:17.071Z,52.11
2019-03-25T07:47:45.638Z,53.14
2019-03-25T07:50:14.431Z,54.98
2019-03-25T07:52:42.919Z,54.01
2019-03-25T07:55:11.507Z,55.48
2019-03-25T07:57:48.039Z,55.92
2019-03-25T08:00:14.854Z,56.27
2019-03-25T08:02:43.417Z,52.65
2019-03-25T08:05:12.207Z,48.94
2019-03-25T08:07:40.683Z,44.55
2019-03-25T08:10:10.100Z,44.24
2019-03-25T08:12:38.727Z,44.96
2019-03-25T08:15:08.156Z,47.65
2019-03-25T08:17:36.710Z,45.14
2019-03-25T08:20:08.316Z,44.95
2019-03-25T08:22:36.735Z,46.62
2019-03-25T08:25:07.486Z,47.71
2019-03-25T08:27:36.032Z,47.68
2019-03-25T08:30:06.815Z,46.90
2019-03-25T08:32:35.244Z,45.99
2019-03-25T08:35:04.446Z,45.83
2019-03-25T08:37:32.903Z,44.33
2019-03-25T08:40:01.343Z,42.53
2019-03-25T08:42:29.828Z,41.22
2019-03-25T08:44:58.315Z,44.22
2019-03-25T08:47:26.735Z,47.11
2019-03-25T08:49:55.274Z,48.55
2019-03-25T08:52:23.701Z,49.02
2019-03-25T08:54:52.191Z,49.80
2019-03-25T08:57:20.705Z,50.12
2019-03-25T08:59:49.159Z,49.19
2019-03-25T09:02:17.652Z,50.47
2019-03-25T09:04:46.147Z,49.10
2019-03-25T09:07:14.785Z,47.85
2019-03-25T09:09:43.208Z,47.18
2019-03-25T09:12:11.646Z,44.39
2019-03-25T09:14:41.098Z,41.49
2019-03-25T09:17:09.700Z,39.33
2019-03-25T09:19:38.112Z,38.75
2019-03-25T09:22:07.021Z,35.42
2019-03-25T09:24:35.546Z,33.90
2019-03-25T09:27:04.103Z,34.44
2019-03-25T09:29:32.670Z,37.92
2019-03-25T09:32:01.140Z,40.45
2019-03-25T09:34:29.654Z,42.41
2019-03-25T09:36:58.175Z,42.87
2019-03-25T09:39:26.707Z,43.79
2019-03-25T09:41:55.198Z,44.69
2019-03-25T09:44:24.022Z,44.97
2019-03-25T09:46:52.581Z,46.17
2019-03-25T09:49:20.992Z,47.05
2019-03-25T09:51:49.512Z,47.29
2019-03-25T09:54:18.040Z,48.58
2019-03-25T09:56:46.598Z,48.78
2019-03-25T09:59:15.020Z,49.60
2019-03-25T10:01:43.564Z,50.39
2019-03-25T10:04:13.741Z,50.52
2019-03-25T10:06:42.598Z,51.10
2019-03-25T10:09:12.014Z,50.99
2019-03-25T10:11:40.581Z,51.18
2019-03-25T10:14:09.170Z,51.09
2019-03-25T10:16:37.594Z,51.87
2019-03-25T10:19:06.270Z,51.34
2019-03-25T10:21:34.801Z,51.86
2019-03-25T10:24:03.406Z,52.58
2019-03-25T10:26:31.877Z,52.56
2019-03-25T10:29:00.346Z,52.17
2019-03-25T10:31:28.874Z,52.70
2019-03-25T10:33:57.375Z,53.55
2019-03-25T10:36:25.880Z,54.29
2019-03-25T10:38:54.423Z,55.44
2019-03-25T10:41:22.818Z,54.81
2019-03-25T10:43:51.294Z,54.99
2019-03-25T10:46:19.764Z,54.57
2019-03-25T10:48:48.434Z,54.67
2019-03-25T10:51:16.841Z,53.86
2019-03-25T10:53:45.374Z,53.48
2019-03-25T10:56:13.860Z,54.14
2019-03-25T10:58:42.332Z,53.65
2019-03-25T11:01:10.917Z,53.33
2019-03-25T11:03:39.707Z,53.10
2019-03-25T11:06:08.127Z,52.42
2019-03-25T11:08:36.548Z,52.84
2019-03-25T11:11:06.359Z,52.88
2019-03-25T11:13:34.982Z,53.40
2019-03-25T11:16:03.556Z,53.72
2019-03-25T11:18:31.984Z,53.19
2019-03-25T11:21:00.539Z,53.73
2019-03-25T11:23:28.973Z,53.95
2019-03-25T11:25:57.571Z,53.13
2019-03-25T11:28:28.771Z,53.12
2019-03-25T11:30:58.779Z,52.76
2019-03-25T11:33:27.327Z,51.64
2019-03-25T11:35:55.928Z,52.11
2019-03-25T11:38:24.486Z,51.91
2019-03-25T11:40:53.368Z,52.07
2019-03-25T11:43:21.937Z,50.02
2019-03-25T11:45:50.490Z,49.49
2019-03-25T11:48:19.062Z,51.16
2019-03-25T11:50:47.629Z,49.48
2019-03-25T11:53:16.199Z,49.14
2019-03-25T11:55:44.678Z,48.96
2019-03-25T11:58:13.209Z,49.48
2019-03-25T12:00:41.669Z,48.40
2019-03-25T12:03:11.306Z,48.25
2019-03-25T12:05:40.738Z,47.60
2019-03-25T12:08:09.354Z,46.03
2019-03-25T12:10:37.829Z,46.36
2019-03-25T12:13:07.348Z,45.35
2019-03-25T12:15:35.808Z,47.41
2019-03-25T12:18:04.417Z,47.09
2019-03-25T12:20:33.090Z,47.52
2019-03-25T12:23:01.509Z,45.58
2019-03-25T12:25:30.129Z,44.28
2019-03-25T12:27:58.621Z,44.74
2019-03-25T12:30:27.067Z,43.71
2019-03-25T12:33:03.617Z,44.78
2019-03-25T12:35:25.827Z,44.54
2019-03-25T12:37:54.284Z,44.58
2019-03-25T12:40:22.775Z,42.78
2019-03-25T12:42:51.323Z,42.14
2019-03-25T12:45:19.810Z,42.96
2019-03-25T12:47:48.296Z,43.66
2019-03-25T12:50:16.892Z,43.99
2019-03-25T12:52:45.382Z,43.76
2019-03-25T12:55:14.007Z,44.86
2019-03-25T12:57:42.437Z,43.60
2019-03-25T13:00:11.513Z,41.96
2019-03-25T13:02:40.069Z,40.37
2019-03-25T13:05:08.967Z,39.12
2019-03-25T13:07:37.440Z,41.08
2019-03-25T13:10:07.527Z,41.47
2019-03-25T13:12:36.041Z,42.44
2019-03-25T13:15:06.775Z,43.56
2019-03-25T13:17:35.294Z,44.56
2019-03-25T13:20:05.749Z,45.29
2019-03-25T13:22:34.200Z,45.80
2019-03-25T13:25:02.688Z,46.19
2019-03-25T13:27:31.144Z,46.11
2019-03-25T13:29:59.679Z,49.78
2019-03-25T13:32:28.102Z,51.71
2019-03-25T13:34:56.614Z,52.16
2019-03-25T13:37:25.070Z,51.92
2019-03-25T13:39:53.550Z,51.85
2019-03-25T13:42:22.006Z,52.58
2019-03-25T13:44:50.424Z,50.53
2019-03-25T13:47:18.871Z,48.35
2019-03-25T13:49:47.287Z,45.09
2019-03-25T13:52:15.799Z,46.82
2019-03-25T13:54:44.248Z,44.35
2019-03-25T13:57:12.951Z,44.08
2019-03-25T13:59:41.616Z,42.07
2019-03-25T14:02:10.147Z,41.91
2019-03-25T14:04:38.632Z,41.94
2019-03-25T14:07:07.241Z,41.77
2019-03-25T14:09:35.659Z,40.67
2019-03-25T14:12:04.217Z,40.51
2019-03-25T14:14:32.764Z,41.76
2019-03-25T14:17:01.241Z,42.21
2019-03-25T14:19:29.743Z,47.10
2019-03-25T14:21:58.168Z,53.60
2019-03-25T14:24:26.645Z,56.23
2019-03-25T14:26:55.162Z,56.50
2019-03-25T14:29:23.647Z,56.99
2019-03-25T14:31:52.172Z,56.17
2019-03-25T14:34:20.599Z,56.91
2019-03-25T14:36:49.086Z,57.32
2019-03-25T14:39:17.753Z,54.59
2019-03-25T14:41:46.350Z,56.30
2019-03-25T14:44:15.181Z,52.95
2019-03-25T14:46:43.594Z,52.70
2019-03-25T14:49:12.041Z,61.16
2019-03-25T14:51:40.614Z,66.02
2019-03-25T14:54:09.038Z,67.14
2019-03-25T14:56:37.493Z,69.03
2019-03-25T14:59:06.008Z,67.77
2019-03-25T15:01:34.597Z,67.61
2019-03-25T15:04:03.010Z,66.88
2019-03-25T15:06:31.544Z,66.45
2019-03-25T15:08:59.967Z,66.64
2019-03-25T15:11:28.476Z,65.27
2019-03-25T15:13:56.983Z,66.11
2019-03-25T15:16:25.669Z,66.55
2019-03-25T15:18:54.232Z,65.59
2019-03-25T15:21:23.676Z,66.05
2019-03-25T15:23:52.212Z,64.64
2019-03-25T15:26:20.786Z,62.62
2019-03-25T15:28:49.314Z,63.07
2019-03-25T15:31:17.782Z,61.08
2019-03-25T15:33:46.283Z,59.64
2019-03-25T15:36:14.816Z,59.35
2019-03-25T15:38:43.249Z,58.76
2019-03-25T15:41:11.719Z,59.09
2019-03-25T15:43:40.206Z,57.92
2019-03-25T15:46:08.690Z,58.71
2019-03-25T15:48:37.133Z,58.92
2019-03-25T15:51:05.651Z,56.76
2019-03-25T15:53:34.102Z,56.89
2019-03-25T15:56:02.602Z,63.80
2019-03-25T15:58:31.030Z,66.81
2019-03-25T16:00:59.634Z,69.72
2019-03-25T16:03:28.200Z,70.87
2019-03-25T16:05:56.705Z,73.32
2019-03-25T16:08:25.224Z,73.89
2019-03-25T16:10:53.706Z,74.97
2019-03-25T16:13:22.209Z,76.08
2019-03-25T16:15:50.745Z,75.83
2019-03-25T16:18:33.240Z,74.71
2019-03-25T16:21:01.737Z,75.22
2019-03-25T16:23:30.236Z,73.04
2019-03-25T16:25:58.998Z,73.47
2019-03-25T16:28:27.436Z,73.15
2019-03-25T16:30:58.866Z,73.10
2019-03-25T16:33:26.126Z,73.90
2019-03-25T16:35:54.666Z,74.81
2019-03-25T16:38:23.254Z,74.85
2019-03-25T16:40:51.738Z,74.92
2019-03-25T16:43:20.213Z,71.44
2019-03-25T16:45:48.705Z,73.20
2019-03-25T16:48:17.167Z,76.01
2019-03-25T16:50:45.599Z,77.52
2019-03-25T16:53:14.113Z,79.13
2019-03-25T16:55:42.564Z,80.82
2019-03-25T16:58:11.043Z,79.50
2019-03-25T17:00:39.743Z,80.03
2019-03-25T17:03:08.331Z,79.45
2019-03-25T17:05:36.819Z,79.38
2019-03-25T17:08:05.331Z,79.50
2019-03-25T17:10:33.850Z,78.73
2019-03-25T17:13:03.269Z,78.81
2019-03-25T17:15:31.708Z,77.42
2019-03-25T17:18:00.141Z,76.86
2019-03-25T17:20:28.666Z,77.05
2019-03-25T17:22:57.153Z,75.78
2019-03-25T17:25:25.745Z,75.14
2019-03-25T17:27:54.201Z,75.33
2019-03-25T17:30:22.897Z,75.53
2019-03-25T17:32:51.339Z,75.01
2019-03-25T17:35:19.826Z,74.71
2019-03-25T17:37:48.358Z,74.24
2019-03-25T17:40:17.013Z,73.74
2019-03-25T17:42:45.996Z,74.78
2019-03-25T17:45:14.916Z,75.04
2019-03-25T17:47:43.510Z,74.92
2019-03-25T17:50:12.362Z,74.65
2019-03-25T17:52:40.912Z,75.46
2019-03-25T17:55:09.673Z,75.75
2019-03-25T17:57:38.192Z,75.88
2019-03-25T18:00:09.440Z,76.36
2019-03-25T18:02:37.947Z,76.17
2019-03-25T18:05:08.023Z,75.80
2019-03-25T18:07:36.853Z,76.07
2019-03-25T18:10:09.203Z,76.11
2019-03-25T18:12:40.821Z,75.97
2019-03-25T18:15:11.191Z,75.99
2019-03-25T18:17:39.632Z,74.44
2019-03-25T18:20:18.087Z,74.63
2019-03-25T18:22:40.127Z,75.50
2019-03-25T18:25:08.879Z,75.48
2019-03-25T18:27:37.324Z,76.05
2019-03-25T18:30:07.119Z,76.35
2019-03-25T18:32:35.658Z,75.85
2019-03-25T18:35:05.111Z,75.91
2019-03-25T18:37:33.529Z,76.12
2019-03-25T18:40:02.113Z,76.37
2019-03-25T18:42:30.544Z,76.00
2019-03-25T18:44:59.089Z,76.74
2019-03-25T18:47:27.594Z,77.22
2019-03-25T18:49:56.227Z,77.66
2019-03-25T18:52:24.893Z,78.49
2019-03-25T18:54:53.335Z,78.36
2019-03-25T18:57:21.853Z,78.37
2019-03-25T18:59:50.451Z,78.56
2019-03-25T19:02:19.031Z,77.73
2019-03-25T19:04:47.614Z,78.52
2019-03-25T19:07:16.229Z,78.68
2019-03-25T19:09:44.940Z,78.81
2019-03-25T19:12:13.347Z,78.76
2019-03-25T19:14:41.859Z,78.51
2019-03-25T19:17:10.397Z,77.57
2019-03-25T19:19:38.975Z,77.74
2019-03-25T19:22:07.397Z,78.22
2019-03-25T19:24:35.944Z,77.96
2019-03-25T19:27:04.613Z,77.09
2019-03-25T19:29:33.020Z,76.68
2019-03-25T19:32:06.496Z,76.84
2019-03-25T19:34:31.828Z,77.35
2019-03-25T19:37:00.323Z,77.84
2019-03-25T19:39:28.846Z,78.05
2019-03-25T19:41:57.278Z,78.16
2019-03-25T19:44:25.685Z,78.52
2019-03-25T19:46:55.671Z,78.61
2019-03-25T19:49:24.207Z,78.33
2019-03-25T19:51:52.763Z,78.21
2019-03-25T19:54:21.195Z,78.41
2019-03-25T19:56:49.626Z,77.42
2019-03-25T19:59:18.145Z,77.56
2019-03-25T20:01:46.739Z,77.91
2019-03-25T20:04:15.225Z,78.32
2019-03-25T20:06:43.799Z,78.47
2019-03-25T20:09:12.282Z,79.14
2019-03-25T20:11:40.736Z,79.23
2019-03-25T20:14:09.263Z,79.70
2019-03-25T20:16:37.874Z,79.64
2019-03-25T20:19:07.976Z,79.45
2019-03-25T20:21:36.560Z,80.53
2019-03-25T20:24:05.043Z,81.15
2019-03-25T20:26:33.540Z,81.18
2019-03-25T20:29:02.063Z,81.53
2019-03-25T20:31:30.673Z,81.96
2019-03-25T20:34:10.463Z,82.84
2019-03-25T20:36:29.520Z,82.86
2019-03-25T20:38:58.052Z,82.79
2019-03-25T20:41:26.700Z,82.90
2019-03-25T20:43:55.132Z,83.51
2019-03-25T20:46:23.872Z,83.84
2019-03-25T20:48:52.389Z,84.13
2019-03-25T20:51:20.856Z,83.59
2019-03-25T20:53:49.688Z,83.40
2019-03-25T20:56:18.267Z,83.31
2019-03-25T20:58:46.646Z,83.10
2019-03-25T21:01:15.340Z,83.26
2019-03-25T21:03:43.818Z,83.78
2019-03-25T21:06:12.307Z,84.81
2019-03-25T21:08:40.934Z,84.75
2019-03-25T21:11:09.353Z,86.05
2019-03-25T21:13:38.075Z,86.46
2019-03-25T21:16:06.633Z,87.30
2019-03-25T21:18:35.103Z,87.36
2019-03-25T21:21:03.588Z,87.45
2019-03-25T21:23:32.078Z,87.35
2019-03-25T21:26:00.553Z,88.12
2019-03-25T21:28:28.996Z,88.07
2019-03-25T21:30:57.557Z,87.68
2019-03-25T21:33:26.021Z,88.13
2019-03-25T21:35:54.466Z,88.20
2019-03-25T21:38:22.978Z,87.45
2019-03-25T21:40:51.497Z,87.92
2019-03-25T21:43:20.002Z,88.50
2019-03-25T21:45:48.481Z,88.92
2019-03-25T21:48:17.087Z,89.16
2019-03-25T21:50:45.654Z,88.68
2019-03-25T21:53:14.250Z,88.52
2019-03-25T21:55:42.876Z,88.38
2019-03-25T21:58:11.340Z,88.39
2019-03-25T22:00:39.797Z,88.46
2019-03-25T22:03:12.211Z,88.11
2019-03-25T22:05:38.434Z,87.79
2019-03-25T22:08:06.975Z,87.78
2019-03-25T22:10:35.405Z,87.59
2019-03-25T22:13:03.869Z,86.62
2019-03-25T22:15:32.355Z,86.26
2019-03-25T22:18:00.862Z,85.57
2019-03-25T22:20:29.379Z,85.79
2019-03-25T22:22:57.817Z,85.67
2019-03-25T22:25:26.280Z,85.97
2019-03-25T22:27:54.795Z,85.01
2019-03-25T22:30:25.835Z,85.81
2019-03-25T22:32:53.507Z,85.91
2019-03-25T22:35:22.033Z,86.21
2019-03-25T22:37:52.015Z,85.99
2019-03-25T22:40:20.476Z,86.25
2019-03-25T22:42:48.935Z,86.19
2019-03-25T22:45:20.403Z,86.43
2019-03-25T22:47:49.058Z,86.63
2019-03-25T22:50:28.583Z,87.41
2019-03-25T22:52:57.895Z,86.95
2019-03-25T22:55:26.856Z,86.42
2019-03-25T22:57:55.320Z,87.04
2019-03-25T23:00:25.760Z,86.84
2019-03-25T23:02:54.428Z,87.29
2019-03-25T23:05:22.939Z,87.22
2019-03-25T23:07:51.458Z,86.96
2019-03-25T23:10:19.878Z,86.96
2019-03-25T23:12:48.328Z,87.33
2019-03-25T23:15:16.754Z,87.37
2019-03-25T23:17:45.225Z,87.14
2019-03-25T23:20:13.734Z,86.96
2019-03-25T23:22:42.156Z,86.85
2019-03-25T23:25:10.810Z,86.88
2019-03-25T23:27:39.249Z,86.86
2019-03-25T23:30:07.804Z,87.42
2019-03-25T23:32:36.375Z,87.38
2019-03-25T23:35:06.365Z,87.18
2019-03-25T23:37:34.781Z,88.43
2019-03-25T23:40:04.475Z,87.95
2019-03-25T23:42:32.924Z,87.49
2019-03-25T23:45:01.379Z,87.51
2019-03-25T23:47:29.821Z,88.08
2019-03-25T23:49:58.329Z,88.46
2019-03-25T23:52:26.743Z,87.55
2019-03-25T23:54:55.205Z,86.53
2019-03-25T23:57:23.617Z,86.55
2019-03-25T23:59:52.023Z,86.83
